Time;durP1;ratioP1;P1;durP2;ratioP2;P2;SDS_P1;SDS_P2;PMS_P1;PMS_P2;Temp;Humidity;BMP_temperature;BMP_pressure;BME280_temperature;BME280_humidity;BME280_pressure;Samples;Min_cycle;Max_cycle;Signal;HPM_P1;HPM_P2
2022/02/02 00:00:29;;;;;;;44.77;10.00;;;9.00;99.90;;;;;;4967401;28;20208;-79
2022/02/02 00:03:05;;;;;;;48.13;10.53;;;9.00;99.90;;;;;;4966629;28;20309;-78
2022/02/02 00:05:38;;;;;;;51.00;9.87;;;9.00;99.90;;;;;;4967063;28;20216;-81
2022/02/02 00:08:09;;;;;;;38.77;8.20;;;8.90;99.90;;;;;;4971578;28;21017;-77
2022/02/02 00:11:03;;;;;;;51.53;10.83;;;8.90;99.90;;;;;;4986690;28;20210;-77
2022/02/02 00:13:39;;;;;;;56.90;11.70;;;8.90;99.90;;;;;;4985948;28;20203;-80
2022/02/02 00:16:14;;;;;;;53.50;11.20;;;8.90;99.90;;;;;;4986364;28;20729;-81
2022/02/02 00:18:53;;;;;;;52.43;11.00;;;8.90;99.90;;;;;;4986582;28;20203;-80
2022/02/02 00:21:25;;;;;;;63.93;12.47;;;8.90;99.90;;;;;;4986102;28;20540;-79
2022/02/02 00:23:57;;;;;;;42.93;8.80;;;8.80;99.90;;;;;;4985834;28;20278;-81
2022/02/02 00:26:28;;;;;;;48.50;9.47;;;8.80;99.90;;;;;;4985668;28;20597;-78
2022/02/02 00:29:00;;;;;;;57.33;12.87;;;8.80;99.90;;;;;;4986280;28;20310;-84
2022/02/02 00:31:33;;;;;;;53.43;12.43;;;8.80;99.90;;;;;;4985782;28;20476;-79
2022/02/02 00:34:05;;;;;;;47.50;8.47;;;8.80;99.90;;;;;;4985002;28;20282;-76
2022/02/02 00:36:41;;;;;;;52.57;10.20;;;8.80;99.90;;;;;;4986006;28;20261;-79
2022/02/02 00:39:08;;;;;;;44.20;9.47;;;8.80;99.90;;;;;;4985922;28;20204;-79
2022/02/02 00:41:35;;;;;;;45.30;9.30;;;8.80;99.90;;;;;;4985365;28;20356;-78
2022/02/02 00:44:03;;;;;;;48.00;10.30;;;8.70;99.90;;;;;;4985338;28;20235;-79
2022/02/02 00:46:30;;;;;;;51.30;10.13;;;8.80;99.90;;;;;;4994766;28;20218;-80
2022/02/02 00:49:01;;;;;;;55.53;10.33;;;8.80;99.90;;;;;;5004107;28;20243;-78
2022/02/02 00:51:38;;;;;;;54.93;10.10;;;8.80;99.90;;;;;;5004826;28;20607;-79
2022/02/02 00:54:05;;;;;;;60.07;11.73;;;8.80;99.90;;;;;;4994410;28;20210;-77
2022/02/02 00:56:32;;;;;;;53.17;12.87;;;8.70;99.90;;;;;;4985452;28;20617;-79
2022/02/02 00:58:59;;;;;;;56.40;11.37;;;8.70;99.90;;;;;;4985363;28;20964;-78
2022/02/02 01:01:27;;;;;;;52.07;10.50;;;8.70;99.90;;;;;;4992234;28;20203;-79
2022/02/02 01:03:54;;;;;;;45.33;9.73;;;8.70;99.90;;;;;;5004639;28;20227;-78
2022/02/02 01:06:22;;;;;;;61.00;12.10;;;8.70;99.90;;;;;;5005233;28;20913;-77
2022/02/02 01:09:09;;;;;;;48.70;9.93;;;8.70;99.90;;;;;;4997340;28;20973;-78
2022/02/02 01:12:03;;;;;;;40.80;10.30;;;8.80;99.90;;;;;;4985374;28;20355;-81
2022/02/02 01:15:33;;;;;;;41.77;9.77;;;8.80;99.90;;;;;;4985455;28;20206;-77
2022/02/02 01:18:13;;;;;;;48.67;10.37;;;8.80;99.90;;;;;;4985470;28;20283;-84
2022/02/02 01:20:58;;;;;;;53.23;9.93;;;8.70;99.90;;;;;;4985310;28;20334;-81
2022/02/02 01:28:56;;;;;;;45.30;9.60;;;8.70;99.90;;;;;;4985319;28;20838;-82
2022/02/02 01:31:23;;;;;;;58.50;10.33;;;8.70;99.90;;;;;;4985322;28;20211;-79
2022/02/02 01:33:50;;;;;;;55.43;11.07;;;8.70;99.90;;;;;;4984965;28;20429;-80
2022/02/02 01:36:18;;;;;;;59.07;10.53;;;8.70;99.90;;;;;;4985367;28;20207;-79
2022/02/02 01:38:47;;;;;;;47.63;10.63;;;8.70;99.90;;;;;;4985265;28;20200;-78
2022/02/02 01:41:24;;;;;;;55.17;10.60;;;8.70;99.90;;;;;;4986594;28;20207;-80
2022/02/02 01:43:58;;;;;;;43.90;9.13;;;8.70;99.90;;;;;;4997974;28;20607;-79
2022/02/02 01:46:29;;;;;;;47.10;10.93;;;8.70;99.90;;;;;;5004480;28;20195;-77
2022/02/02 01:49:02;;;;;;;53.67;9.40;;;8.80;99.90;;;;;;4985650;28;20215;-79
2022/02/02 01:51:54;;;;;;;44.30;9.17;;;8.80;99.90;;;;;;4984985;28;20589;-79
2022/02/02 01:54:35;;;;;;;47.27;10.37;;;8.80;99.90;;;;;;4985102;28;20215;-78
2022/02/02 01:57:18;;;;;;;42.80;9.80;;;8.80;99.90;;;;;;4985333;28;20208;-81
2022/02/02 01:59:45;;;;;;;49.23;10.17;;;8.90;99.90;;;;;;4985230;28;20204;-78
2022/02/02 02:02:12;;;;;;;51.07;11.00;;;8.90;99.90;;;;;;4989618;28;20203;-76
2022/02/02 02:04:39;;;;;;;53.00;12.07;;;8.90;99.90;;;;;;4987838;28;20220;-79
2022/02/02 02:07:07;;;;;;;61.13;12.37;;;8.90;99.90;;;;;;4987545;28;20221;-79
2022/02/02 02:09:34;;;;;;;39.50;9.07;;;8.90;99.90;;;;;;4988524;28;20243;-76
2022/02/02 02:12:04;;;;;;;48.37;11.17;;;8.90;99.90;;;;;;4987518;28;20786;-76
2022/02/02 02:14:49;;;;;;;45.47;10.13;;;8.90;99.90;;;;;;4988442;28;20475;-78
2022/02/02 02:17:17;;;;;;;49.57;10.50;;;8.90;99.90;;;;;;4988977;28;20327;-77
2022/02/02 02:19:47;;;;;;;47.77;12.10;;;8.90;99.90;;;;;;4987765;28;20921;-78
2022/02/02 02:22:16;;;;;;;51.00;10.00;;;8.90;99.90;;;;;;4988213;28;20203;-78
2022/02/02 02:24:45;;;;;;;41.37;9.80;;;8.90;99.90;;;;;;4987967;28;20247;-81
2022/02/02 02:27:15;;;;;;;52.93;11.50;;;8.90;99.90;;;;;;4987362;28;20212;-77
2022/02/02 02:30:05;;;;;;;45.33;9.33;;;8.90;99.90;;;;;;4987113;28;20207;-77
2022/02/02 02:32:55;;;;;;;47.27;9.80;;;8.90;99.90;;;;;;4987283;28;20778;-80
2022/02/02 02:35:57;;;;;;;52.07;10.07;;;8.90;99.90;;;;;;4987137;28;20196;-79
2022/02/02 02:57:47;;;;;;;44.13;9.33;;;8.90;99.90;;;;;;5007100;28;20207;-79
2022/02/02 03:00:26;;;;;;;48.67;9.93;;;8.90;99.90;;;;;;5007938;28;20195;-78
2022/02/02 03:30:35;;;;;;;61.03;10.83;;;8.80;99.90;;;;;;5046402;28;20296;-78
2022/02/02 03:34:37;;;;;;;41.80;8.30;;;8.80;99.90;;;;;;5046167;28;20244;-78
2022/02/02 03:49:50;;;;;;;44.73;9.50;;;8.80;99.90;;;;;;5042485;28;20283;-80
2022/02/02 03:55:05;;;;;;;41.83;9.57;;;8.80;99.90;;;;;;4992609;28;20202;-78
2022/02/02 03:57:48;;;;;;;44.47;8.97;;;8.80;99.90;;;;;;5026328;28;20210;-77
2022/02/02 04:00:26;;;;;;;40.03;8.63;;;8.80;99.90;;;;;;5025597;28;20322;-79
2022/02/02 04:03:16;;;;;;;39.33;8.63;;;8.80;99.90;;;;;;5025857;28;20198;-78
2022/02/02 04:05:45;;;;;;;44.40;9.40;;;8.80;99.90;;;;;;5024555;28;20554;-80
2022/02/02 04:08:25;;;;;;;38.60;8.90;;;8.80;99.90;;;;;;5024696;28;20337;-78
2022/02/02 04:10:53;;;;;;;50.17;9.33;;;8.80;99.90;;;;;;5044344;28;20229;-78
2022/02/02 04:13:32;;;;;;;39.27;9.07;;;8.80;99.90;;;;;;5034094;28;20207;-78
2022/02/02 04:38:45;;;;;;;42.43;10.80;;;8.80;99.90;;;;;;5025547;28;20210;-80
2022/02/02 04:52:28;;;;;;;55.70;9.07;;;8.80;99.90;;;;;;5031189;28;20241;-80
2022/02/02 04:55:00;;;;;;;39.53;9.43;;;8.70;99.90;;;;;;5024507;28;20333;-78
2022/02/02 05:01:32;;;;;;;39.40;8.10;;;8.80;99.90;;;;;;5013469;23;20240;-79
2022/02/02 05:04:06;;;;;;;44.20;9.10;;;8.70;99.90;;;;;;5044595;28;20206;-80
2022/02/02 05:06:39;;;;;;;36.73;8.13;;;8.70;99.90;;;;;;5024433;28;20521;-80
2022/02/02 05:09:21;;;;;;;45.70;9.00;;;8.70;99.90;;;;;;5024031;28;20535;-79
2022/02/02 05:12:31;;;;;;;38.83;9.00;;;8.70;99.90;;;;;;5024144;28;20225;-78
2022/02/02 05:17:56;;;;;;;57.43;11.03;;;8.70;99.90;;;;;;4991076;28;20264;-79
2022/02/02 05:24:09;;;;;;;39.77;8.23;;;8.80;99.90;;;;;;5023980;28;20645;-78
2022/02/02 05:51:18;;;;;;;44.17;9.37;;;8.60;99.90;;;;;;5018301;28;20206;-79
2022/02/02 05:53:45;;;;;;;38.07;8.80;;;8.60;99.90;;;;;;5027721;28;20689;-79
2022/02/02 05:56:13;;;;;;;41.47;9.23;;;8.60;99.90;;;;;;5010791;28;20218;-78
2022/02/02 05:58:44;;;;;;;44.43;8.50;;;8.50;99.90;;;;;;5008020;28;20203;-78
2022/02/02 06:01:12;;;;;;;44.33;9.13;;;8.50;99.90;;;;;;5008538;28;20685;-78
2022/02/02 06:03:49;;;;;;;44.90;8.40;;;8.50;99.90;;;;;;5007372;28;20214;-78
2022/02/02 06:06:16;;;;;;;50.33;10.33;;;8.50;99.90;;;;;;5008565;28;20206;-78
2022/02/02 06:08:44;;;;;;;52.47;10.37;;;8.40;99.90;;;;;;5023264;28;20207;-81
2022/02/02 06:11:14;;;;;;;54.67;10.97;;;8.50;99.90;;;;;;5027808;28;20211;-80
2022/02/02 06:13:44;;;;;;;45.67;8.77;;;8.40;99.90;;;;;;5027332;28;20198;-78
2022/02/02 06:16:12;;;;;;;41.87;8.63;;;8.40;99.90;;;;;;5018060;28;20215;-79
2022/02/02 06:18:39;;;;;;;49.80;9.67;;;8.40;99.90;;;;;;5006967;28;20198;-79
2022/02/02 06:21:08;;;;;;;44.13;9.70;;;8.40;99.90;;;;;;5008396;28;20226;-80
2022/02/02 06:23:38;;;;;;;36.27;7.90;;;8.40;99.90;;;;;;5008563;28;20212;-79
2022/02/02 06:26:10;;;;;;;35.73;9.23;;;8.40;99.90;;;;;;5007497;28;20318;-80
2022/02/02 06:28:38;;;;;;;49.97;9.73;;;8.40;99.90;;;;;;5009080;28;20647;-78
2022/02/02 06:31:06;;;;;;;51.10;10.37;;;8.40;99.90;;;;;;5027781;28;20389;-80
2022/02/02 06:33:35;;;;;;;48.40;9.17;;;8.30;99.90;;;;;;5027101;28;20234;-80
2022/02/02 06:36:02;;;;;;;41.30;9.07;;;8.30;99.90;;;;;;5026843;28;20203;-81
2022/02/02 06:38:30;;;;;;;50.83;10.33;;;8.30;99.90;;;;;;5016952;28;20211;-79
2022/02/02 06:40:58;;;;;;;49.37;9.40;;;8.40;99.90;;;;;;5007244;28;20199;-79
2022/02/02 06:43:26;;;;;;;51.23;8.90;;;8.30;99.90;;;;;;5006738;28;20303;-78
2022/02/02 06:45:54;;;;;;;51.43;9.83;;;8.30;99.90;;;;;;5015071;28;20864;-77
2022/02/02 06:48:22;;;;;;;49.50;9.97;;;8.20;99.90;;;;;;5024616;28;20227;-77
2022/02/02 06:50:58;;;;;;;50.43;10.07;;;8.20;99.90;;;;;;5006770;28;20313;-76
2022/02/02 06:53:32;;;;;;;63.67;13.30;;;8.30;99.90;;;;;;5014928;28;20917;-77
2022/02/02 06:56:12;;;;;;;44.40;9.60;;;8.30;99.90;;;;;;5007280;28;20207;-78
2022/02/02 06:58:59;;;;;;;56.60;9.77;;;8.20;99.90;;;;;;5008239;28;20224;-78
2022/02/02 07:01:44;;;;;;;45.27;7.50;;;8.20;99.90;;;;;;5007088;28;20272;-79
2022/02/02 07:04:29;;;;;;;38.00;7.77;;;8.20;99.90;;;;;;5026152;28;20195;-79
2022/02/02 07:07:08;;;;;;;48.10;10.20;;;8.20;99.90;;;;;;5016906;28;20560;-79
2022/02/02 07:09:54;;;;;;;54.47;8.47;;;8.10;99.90;;;;;;5007310;28;20210;-81
2022/02/02 07:12:32;;;;;;;48.67;8.10;;;8.10;99.90;;;;;;5006637;28;20770;-79
2022/02/02 07:15:17;;;;;;;41.80;8.80;;;8.20;99.90;;;;;;5005911;28;20321;-79
2022/02/02 07:17:53;;;;;;;42.13;7.87;;;8.20;99.90;;;;;;5005950;28;20188;-77
2022/02/02 07:20:32;;;;;;;43.00;8.20;;;8.10;99.90;;;;;;5013456;28;20238;-80
2022/02/02 07:23:17;;;;;;;42.13;8.90;;;8.10;99.90;;;;;;5025336;28;20207;-81
2022/02/02 07:26:08;;;;;;;45.13;8.20;;;8.10;99.90;;;;;;5014183;28;20265;-80
2022/02/02 07:28:41;;;;;;;41.53;8.93;;;8.10;99.90;;;;;;5006263;28;20979;-80
2022/02/02 07:31:23;;;;;;;44.90;8.77;;;8.10;99.90;;;;;;5006918;28;20611;-78
2022/02/02 07:33:56;;;;;;;35.83;8.27;;;8.20;99.90;;;;;;5006069;28;20211;-79
2022/02/02 07:36:35;;;;;;;43.20;8.90;;;8.10;99.90;;;;;;5006345;28;20870;-78
2022/02/02 07:39:05;;;;;;;35.70;8.73;;;8.10;99.90;;;;;;5005559;28;20199;-80
2022/02/02 07:41:35;;;;;;;37.93;8.70;;;8.00;99.90;;;;;;5005538;28;20681;-80
2022/02/02 07:44:08;;;;;;;49.00;8.83;;;8.10;99.90;;;;;;5005843;28;20295;-80
2022/02/02 07:46:38;;;;;;;35.97;7.57;;;8.10;99.90;;;;;;5027472;28;20368;-78
2022/02/02 07:49:07;;;;;;;41.33;8.43;;;8.10;99.90;;;;;;5044996;28;20602;-79
2022/02/02 07:51:38;;;;;;;37.77;7.80;;;8.00;99.90;;;;;;5044887;28;20297;-80
2022/02/02 07:54:09;;;;;;;42.43;8.07;;;8.10;99.90;;;;;;5039887;28;20309;-79
2022/02/02 07:56:41;;;;;;;43.17;8.10;;;8.10;99.90;;;;;;5025628;28;20305;-79
2022/02/02 07:59:17;;;;;;;38.50;8.43;;;8.10;99.90;;;;;;5025377;28;20203;-79
2022/02/02 08:01:46;;;;;;;45.80;8.63;;;8.20;99.90;;;;;;5017154;28;20345;-78
2022/02/02 08:04:13;;;;;;;42.73;8.13;;;8.20;99.90;;;;;;5024619;28;20206;-80
2022/02/02 08:06:44;;;;;;;32.33;8.17;;;8.20;99.90;;;;;;5025112;28;20231;-80
2022/02/02 08:09:19;;;;;;;52.77;9.37;;;8.20;99.90;;;;;;5025371;28;20221;-80
2022/02/02 08:11:45;;;;;;;39.60;8.90;;;8.20;99.90;;;;;;5024661;28;20201;-78
2022/02/02 08:14:13;;;;;;;46.03;7.90;;;8.20;99.90;;;;;;5025335;28;20865;-80
2022/02/02 08:16:41;;;;;;;49.17;7.97;;;8.20;99.90;;;;;;5024031;28;20202;-78
2022/02/02 08:19:07;;;;;;;38.53;8.93;;;8.20;99.90;;;;;;5023964;28;20199;-78
2022/02/02 08:21:34;;;;;;;33.20;7.43;;;8.30;99.90;;;;;;5014114;28;20806;-78
2022/02/02 08:24:03;;;;;;;35.77;7.73;;;8.30;99.90;;;;;;5004717;28;20199;-77
2022/02/02 08:26:29;;;;;;;46.37;10.00;;;8.40;99.90;;;;;;5005551;28;20237;-77
2022/02/02 08:28:58;;;;;;;44.00;10.37;;;8.40;99.90;;;;;;5023895;28;20225;-78
2022/02/02 08:31:27;;;;;;;40.17;10.07;;;8.40;99.90;;;;;;5023496;28;20206;-78
2022/02/02 08:33:57;;;;;;;41.27;8.37;;;8.50;99.90;;;;;;5024305;28;20206;-79
2022/02/02 08:36:24;;;;;;;43.40;9.23;;;8.50;99.90;;;;;;5024684;28;20773;-77
2022/02/02 08:38:59;;;;;;;43.80;8.77;;;8.50;99.90;;;;;;4999461;28;20210;-79
2022/02/02 08:41:32;;;;;;;37.67;8.27;;;8.60;99.90;;;;;;5015353;28;20234;-80
2022/02/02 08:44:02;;;;;;;35.00;7.47;;;8.60;99.90;;;;;;5005158;28;20282;-81
2022/02/02 08:46:33;;;;;;;48.10;9.03;;;8.60;99.90;;;;;;5024638;28;20229;-81
2022/02/02 08:49:03;;;;;;;37.20;9.30;;;8.60;99.90;;;;;;5044502;28;20205;-78
2022/02/02 08:51:30;;;;;;;39.73;7.23;;;8.60;99.90;;;;;;5020414;28;21113;-81
2022/02/02 08:59:40;;;;;;;40.20;8.13;;;8.60;99.90;;;;;;5024474;28;20205;-80
2022/02/02 09:02:11;;;;;;;34.13;7.70;;;8.60;99.90;;;;;;5021200;28;20620;-80
2022/02/02 09:07:22;;;;;;;44.47;9.30;;;8.70;99.90;;;;;;5006993;28;20264;-78
2022/02/02 09:10:02;;;;;;;32.27;6.97;;;8.70;99.90;;;;;;5023867;28;20203;-77
2022/02/02 09:23:32;;;;;;;37.43;7.37;;;8.80;99.90;;;;;;4973325;28;20214;-79
2022/02/02 09:26:24;;;;;;;32.53;7.73;;;8.80;99.90;;;;;;5004270;28;20219;-79
2022/02/02 09:31:52;;;;;;;44.57;7.87;;;8.80;99.90;;;;;;5004150;28;20194;-78
2022/02/02 09:34:21;;;;;;;42.17;7.33;;;8.80;99.90;;;;;;5006304;28;20627;-79
2022/02/02 09:36:49;;;;;;;33.50;8.07;;;8.80;99.90;;;;;;5024652;28;20293;-80
2022/02/02 09:39:21;;;;;;;36.30;6.40;;;8.90;99.90;;;;;;5005737;28;20226;-82
2022/02/02 09:41:49;;;;;;;39.20;7.40;;;8.90;99.90;;;;;;5003615;28;20242;-81
2022/02/02 09:44:22;;;;;;;29.97;7.07;;;8.90;99.90;;;;;;5004129;28;20214;-81
2022/02/02 09:46:58;;;;;;;32.20;7.17;;;8.90;99.90;;;;;;5003685;28;20329;-81
2022/02/02 09:49:32;;;;;;;39.90;7.20;;;8.90;99.90;;;;;;5020809;28;20213;-79
2022/02/02 09:52:03;;;;;;;27.90;6.77;;;9.00;99.90;;;;;;5023520;28;20937;-79
2022/02/02 09:54:37;;;;;;;33.00;6.73;;;9.00;99.90;;;;;;5012070;28;20570;-81
2022/02/02 10:03:03;;;;;;;30.10;6.93;;;9.10;99.90;;;;;;4985495;28;20640;-79
2022/02/02 10:05:34;;;;;;;40.93;6.97;;;9.20;99.90;;;;;;5013322;28;20716;-82
2022/02/02 10:08:35;;;;;;;24.23;5.47;;;9.20;99.90;;;;;;5023727;28;20215;-79
2022/02/02 10:11:08;;;;;;;25.80;5.50;;;9.20;99.90;;;;;;5022921;28;20215;-79
2022/02/02 10:14:03;;;;;;;24.03;5.63;;;9.30;99.90;;;;;;5023768;28;20222;-79
2022/02/02 10:16:43;;;;;;;28.80;7.03;;;9.30;99.90;;;;;;5023010;28;20732;-81
2022/02/02 10:19:14;;;;;;;25.57;6.03;;;9.40;99.90;;;;;;5014275;28;20844;-80
2022/02/02 10:21:41;;;;;;;34.27;5.97;;;9.40;99.90;;;;;;5005165;28;20246;-79
2022/02/02 10:24:07;;;;;;;30.67;7.27;;;9.40;99.90;;;;;;5007938;28;20234;-80
2022/02/02 10:26:44;;;;;;;28.40;7.17;;;9.50;99.90;;;;;;5027578;28;20235;-80
2022/02/02 10:29:14;;;;;;;24.60;5.17;;;9.50;99.90;;;;;;5027113;28;20203;-79
2022/02/02 10:31:46;;;;;;;33.47;6.33;;;9.50;99.90;;;;;;5025940;28;20684;-80
2022/02/02 10:34:15;;;;;;;37.97;5.83;;;9.50;99.90;;;;;;5007122;28;20673;-80
2022/02/02 10:36:42;;;;;;;30.83;6.83;;;9.60;99.90;;;;;;5009917;28;20206;-80
2022/02/02 10:39:13;;;;;;;28.20;5.23;;;9.60;99.90;;;;;;5026946;28;20210;-78
2022/02/02 10:41:44;;;;;;;20.60;5.40;;;9.60;99.90;;;;;;5027476;28;20531;-78
2022/02/02 10:44:18;;;;;;;30.43;6.47;;;9.70;99.90;;;;;;5018441;28;20214;-80
2022/02/02 10:47:00;;;;;;;24.83;6.00;;;9.70;99.90;;;;;;5006894;28;20616;-80
2022/02/02 10:49:35;;;;;;;29.87;4.70;;;9.70;99.90;;;;;;5026697;28;20195;-79
2022/02/02 10:52:07;;;;;;;25.63;5.37;;;9.70;99.90;;;;;;5026694;28;20198;-82
2022/02/02 10:54:42;;;;;;;30.37;6.17;;;9.60;99.90;;;;;;5010801;28;20599;-79
2022/02/02 10:57:15;;;;;;;22.80;5.07;;;9.60;99.90;;;;;;5007965;28;20210;-80
2022/02/02 11:08:13;;;;;;;27.53;6.53;;;9.70;99.90;;;;;;5007018;28;20252;-82
2022/02/02 11:10:40;;;;;;;25.30;4.97;;;9.70;99.90;;;;;;5026412;28;20218;-80
2022/02/02 11:13:11;;;;;;;25.27;4.53;;;9.80;99.90;;;;;;5026172;28;20207;-80
2022/02/02 11:15:41;;;;;;;26.77;5.80;;;9.80;99.90;;;;;;5026870;28;20194;-79
2022/02/02 11:18:22;;;;;;;17.33;5.20;;;9.90;99.90;;;;;;5026684;28;20213;-80
2022/02/02 11:20:49;;;;;;;26.63;4.33;;;9.90;99.90;;;;;;5025014;28;20642;-80
2022/02/02 11:23:16;;;;;;;23.57;4.57;;;9.90;99.90;;;;;;5025171;28;20211;-80
2022/02/02 11:25:50;;;;;;;29.67;4.77;;;9.80;99.90;;;;;;5025297;28;20222;-79
2022/02/02 11:28:32;;;;;;;30.03;5.20;;;9.80;99.90;;;;;;5007780;28;20211;-79
2022/02/02 11:31:09;;;;;;;22.87;4.70;;;9.80;99.90;;;;;;5006841;28;20297;-79
2022/02/02 11:33:50;;;;;;;28.23;5.43;;;9.80;99.90;;;;;;5005973;28;20199;-77
2022/02/02 11:36:22;;;;;;;21.00;4.40;;;9.80;99.90;;;;;;5006310;28;20262;-80
2022/02/02 11:38:52;;;;;;;21.30;4.40;;;9.90;99.90;;;;;;5005748;28;20203;-78
2022/02/02 11:44:20;;;;;;;26.50;5.27;;;9.90;99.90;;;;;;5006379;28;20807;-80
2022/02/02 11:46:59;;;;;;;18.73;4.73;;;10.00;99.90;;;;;;5029745;28;20210;-79
2022/02/02 11:49:46;;;;;;;22.63;4.80;;;10.00;99.90;;;;;;5010552;28;20219;-80
2022/02/02 11:52:44;;;;;;;26.27;4.60;;;10.00;99.90;;;;;;5005985;28;20202;-79
2022/02/02 11:55:47;;;;;;;20.80;4.90;;;10.10;99.90;;;;;;4953131;28;20332;-79
2022/02/02 11:58:31;;;;;;;21.40;4.53;;;10.10;99.90;;;;;;5025847;28;20534;-79
2022/02/02 12:01:05;;;;;;;20.97;5.03;;;10.10;99.90;;;;;;5008283;28;20402;-80
2022/02/02 12:03:51;;;;;;;23.33;5.13;;;10.10;99.90;;;;;;5005130;28;20207;-78
2022/02/02 12:06:33;;;;;;;17.37;3.43;;;10.00;99.90;;;;;;5005408;28;20216;-80
2022/02/02 12:09:08;;;;;;;22.93;5.27;;;10.10;99.90;;;;;;5005818;28;20909;-79
2022/02/02 12:18:57;;;;;;;20.17;4.23;;;10.10;99.90;;;;;;5014777;28;20817;-78
2022/02/02 12:48:58;;;;;;;14.07;3.90;;;10.10;99.90;;;;;;5024945;28;21008;-80
2022/02/02 12:56:57;;;;;;;14.80;4.57;;;10.10;99.90;;;;;;5019844;28;20203;-80
2022/02/02 13:02:23;;;;;;;19.50;4.07;;;10.10;99.90;;;;;;5005615;28;20559;-80
2022/02/02 13:04:55;;;;;;;20.13;4.80;;;10.00;99.90;;;;;;5003393;28;20218;-79
2022/02/02 13:07:23;;;;;;;13.23;3.30;;;10.10;99.90;;;;;;5004570;28;20313;-80
2022/02/02 13:09:52;;;;;;;16.53;4.07;;;10.10;99.90;;;;;;5004563;28;20278;-80
2022/02/02 13:12:28;;;;;;;15.17;3.83;;;10.10;99.90;;;;;;5009126;28;20714;-80
2022/02/02 13:15:10;;;;;;;20.80;4.03;;;10.10;99.90;;;;;;5024042;28;20206;-80
2022/02/02 13:17:51;;;;;;;18.70;4.07;;;10.20;99.90;;;;;;5023093;28;20276;-81
2022/02/02 13:20:36;;;;;;;18.80;4.10;;;10.20;99.90;;;;;;5023625;28;20218;-79
2022/02/02 13:23:06;;;;;;;19.47;3.93;;;10.20;99.90;;;;;;5026496;28;20363;-79
2022/02/02 13:25:34;;;;;;;21.77;4.87;;;10.30;99.90;;;;;;5026023;28;20215;-80
2022/02/02 13:28:05;;;;;;;17.10;3.67;;;10.30;99.90;;;;;;5024242;28;20258;-79
2022/02/02 13:30:37;;;;;;;16.70;3.67;;;10.30;99.90;;;;;;5026660;28;20305;-79
2022/02/02 13:33:22;;;;;;;19.00;4.47;;;10.30;99.90;;;;;;5026348;28;20210;-78
2022/02/02 13:36:27;;;;;;;26.30;5.33;;;10.30;99.90;;;;;;5024150;28;20241;-80
2022/02/02 13:42:17;;;;;;;18.07;3.47;;;10.20;99.90;;;;;;5011329;28;20211;-80
2022/02/02 13:45:25;;;;;;;18.80;4.30;;;10.10;99.90;;;;;;4968229;28;20222;-80
2022/02/02 13:48:13;;;;;;;19.90;4.10;;;10.10;99.90;;;;;;5017109;28;20249;-79
2022/02/02 14:08:56;;;;;;;19.57;3.97;;;10.20;99.90;;;;;;5026071;28;20509;-80
2022/02/02 14:32:55;;;;;;;17.13;4.27;;;10.20;99.90;;;;;;5005960;28;20257;-79
2022/02/02 14:35:23;;;;;;;20.40;4.37;;;10.20;99.90;;;;;;5025445;28;20217;-80
2022/02/02 14:37:52;;;;;;;15.97;4.07;;;10.10;99.90;;;;;;5015369;28;20226;-80
2022/02/02 14:40:26;;;;;;;18.93;4.03;;;10.10;99.90;;;;;;5005082;28;20211;-79
2022/02/02 14:42:56;;;;;;;14.50;3.53;;;10.10;99.90;;;;;;5006595;28;20671;-80
2022/02/02 14:45:26;;;;;;;14.73;4.03;;;10.00;99.90;;;;;;5007290;28;20322;-79
2022/02/02 14:48:00;;;;;;;13.10;4.57;;;9.90;99.90;;;;;;5025994;28;20246;-78
2022/02/02 14:50:32;;;;;;;14.80;3.40;;;9.90;99.90;;;;;;5007096;28;20220;-78
2022/02/02 14:53:13;;;;;;;17.60;3.53;;;9.90;99.90;;;;;;5005400;28;20214;-80
2022/02/02 15:09:54;;;;;;;12.73;3.77;;;10.10;99.90;;;;;;4969503;28;20231;-78
2022/02/02 15:27:01;;;;;;;10.17;2.53;;;9.80;99.90;;;;;;5023717;28;20209;-78
2022/02/02 15:29:09;;;;;;;10.37;3.40;;;9.70;99.90;;;;;;5006370;28;20278;-78
2022/02/02 15:31:37;;;;;;;10.40;3.27;;;9.70;99.90;;;;;;5006392;28;20257;-77
2022/02/02 15:34:06;;;;;;;7.73;2.83;;;9.70;99.90;;;;;;5006154;28;20773;-78
2022/02/02 15:39:20;;;;;;;8.97;2.53;;;9.60;99.90;;;;;;5006223;28;20199;-78
2022/02/02 15:42:03;;;;;;;8.87;3.23;;;9.60;99.90;;;;;;5005588;28;20211;-79
2022/02/02 15:58:35;;;;;;;12.03;3.90;;;9.50;99.90;;;;;;4988024;28;20215;-81
2022/02/02 16:03:46;;;;;;;11.60;4.23;;;9.50;99.90;;;;;;5025283;28;20252;-77
2022/02/02 16:06:17;;;;;;;13.60;4.70;;;9.50;99.90;;;;;;5025581;28;20207;-78
2022/02/02 16:08:46;;;;;;;14.53;5.97;;;9.50;99.90;;;;;;5025151;28;20850;-78
2022/02/02 16:11:19;;;;;;;14.70;6.53;;;9.50;99.90;;;;;;5025605;28;20838;-79
2022/02/02 16:13:48;;;;;;;9.67;3.83;;;9.50;99.90;;;;;;5008615;28;20218;-80
2022/02/02 16:16:37;;;;;;;7.83;3.23;;;9.60;99.90;;;;;;5004794;28;20292;-78
2022/02/02 16:19:13;;;;;;;13.37;4.63;;;9.50;99.90;;;;;;5005392;28;21021;-79
2022/02/02 16:33:30;;;;;;;19.53;10.73;;;9.30;99.90;;;;;;4986226;28;20294;-81
2022/02/02 16:35:58;;;;;;;16.63;8.87;;;9.30;99.90;;;;;;5004894;28;20204;-78
2022/02/02 16:38:28;;;;;;;14.83;8.07;;;9.20;99.90;;;;;;5016630;28;20213;-78
2022/02/02 16:40:57;;;;;;;14.43;8.57;;;9.20;99.90;;;;;;5024316;28;20206;-77
2022/02/02 16:43:24;;;;;;;18.90;11.90;;;9.20;99.90;;;;;;5024670;28;20202;-78
2022/02/02 16:45:53;;;;;;;22.07;9.90;;;9.20;99.90;;;;;;5023727;28;20811;-79
2022/02/02 16:48:21;;;;;;;21.23;9.77;;;9.10;99.90;;;;;;5009796;28;20250;-78
2022/02/02 16:50:51;;;;;;;15.63;7.50;;;9.20;99.90;;;;;;5003760;28;20210;-77
2022/02/02 16:53:28;;;;;;;14.50;6.63;;;9.20;99.90;;;;;;5004468;28;20206;-78
2022/02/02 16:56:02;;;;;;;18.20;6.67;;;9.20;99.90;;;;;;5004609;28;20205;-76
2022/02/02 17:31:27;;;;;;;11.33;3.70;;;9.00;99.90;;;;;;5005412;28;20202;-78
2022/02/02 17:33:58;;;;;;;9.57;2.90;;;9.00;99.90;;;;;;5007201;28;20206;-77
2022/02/02 17:36:29;;;;;;;11.33;3.40;;;9.00;99.90;;;;;;5008761;28;20634;-78
2022/02/02 17:39:00;;;;;;;5.13;2.57;;;9.00;99.90;;;;;;5007443;28;20730;-77
2022/02/02 17:44:36;;;;;;;10.77;2.60;;;9.00;99.90;;;;;;4974829;28;20489;-78
2022/02/02 17:59:12;;;;;;;8.00;2.10;;;9.00;99.90;;;;;;5026839;28;20288;-76
2022/02/02 18:20:03;;;;;;;11.27;5.67;;;9.00;99.90;;;;;;4858932;29;20668;-76
2022/02/02 18:22:36;;;;;;;12.00;5.73;;;9.00;99.90;;;;;;4965085;28;20308;-77
2022/02/02 18:25:09;;;;;;;12.53;6.90;;;9.00;99.90;;;;;;4965268;28;20209;-76
2022/02/02 18:27:45;;;;;;;13.90;7.63;;;9.00;99.90;;;;;;4964960;28;20228;-77
2022/02/02 18:30:26;;;;;;;14.93;8.27;;;9.00;99.90;;;;;;4964896;28;20199;-77
2022/02/02 18:33:09;;;;;;;15.50;10.03;;;8.90;99.90;;;;;;4964580;28;20245;-76
2022/02/02 18:35:43;;;;;;;14.20;7.80;;;8.90;99.90;;;;;;4965818;28;20208;-77
2022/02/02 18:49:39;;;;;;;24.77;13.27;;;8.90;99.90;;;;;;5080254;28;20245;-77
2022/02/02 18:54:56;;;;;;;27.33;14.07;;;8.90;99.90;;;;;;5080105;28;20771;-77
2022/02/02 18:57:39;;;;;;;17.33;11.43;;;8.90;99.90;;;;;;5079699;28;20196;-77
2022/02/02 19:00:33;;;;;;;25.30;14.70;;;8.90;99.90;;;;;;5080221;28;20242;-78
2022/02/02 19:31:19;;;;;;;43.67;19.67;;;9.00;99.90;;;;;;5118958;28;20201;-78
2022/02/02 19:55:57;;;;;;;41.77;17.80;;;9.00;99.90;;;;;;5080217;28;20597;-78
2022/02/02 20:04:18;;;;;;;28.93;15.30;;;9.00;99.90;;;;;;5100023;28;20911;-78
2022/02/02 20:06:58;;;;;;;30.03;16.37;;;9.00;99.90;;;;;;5099836;28;20273;-80
2022/02/02 20:12:24;;;;;;;37.00;19.43;;;9.00;99.90;;;;;;5083908;27;20604;-79
2022/02/02 20:14:50;;;;;;;42.50;20.20;;;9.00;99.90;;;;;;5071338;28;20274;-82
2022/02/02 20:17:20;;;;;;;43.43;21.03;;;9.00;99.90;;;;;;5069264;28;20205;-79
2022/02/02 20:19:52;;;;;;;43.17;22.37;;;9.00;99.90;;;;;;5067659;28;20271;-80
2022/02/02 20:22:21;;;;;;;42.73;19.97;;;9.00;99.90;;;;;;5061466;28;20823;-79
2022/02/02 20:24:56;;;;;;;45.03;21.03;;;8.90;99.90;;;;;;5061892;28;20208;-80
2022/02/02 20:27:25;;;;;;;38.20;19.60;;;8.90;99.90;;;;;;5070619;28;20200;-81
2022/02/02 20:29:52;;;;;;;36.63;21.30;;;8.90;99.90;;;;;;5067274;28;20698;-80
2022/02/02 20:32:19;;;;;;;38.63;20.43;;;8.90;99.90;;;;;;5061581;28;20221;-77
2022/02/02 20:34:46;;;;;;;37.27;20.07;;;8.90;99.90;;;;;;5061442;28;20220;-79
2022/02/02 20:37:16;;;;;;;45.30;20.73;;;8.90;99.90;;;;;;5059794;28;20205;-80
2022/02/02 20:39:49;;;;;;;39.70;20.40;;;8.90;99.90;;;;;;5060857;28;20209;-77
2022/02/02 20:42:20;;;;;;;49.50;21.00;;;9.00;99.90;;;;;;5060697;28;20202;-79
2022/02/02 20:45:05;;;;;;;43.80;19.33;;;8.90;99.90;;;;;;5059983;28;20202;-78
2022/02/02 21:04:27;;;;;;;43.17;17.90;;;8.90;99.90;;;;;;5039543;28;20316;-79
2022/02/02 21:07:23;;;;;;;39.10;17.17;;;8.90;99.90;;;;;;5060729;28;20213;-79
2022/02/02 21:09:58;;;;;;;35.87;18.30;;;8.90;99.90;;;;;;5059209;28;20233;-78
2022/02/02 21:15:16;;;;;;;30.37;15.80;;;8.90;99.90;;;;;;5059062;28;20193;-77
2022/02/02 21:17:44;;;;;;;35.83;16.23;;;8.90;99.90;;;;;;5058718;28;20194;-78
2022/02/02 21:20:19;;;;;;;40.30;16.93;;;8.90;99.90;;;;;;5061007;28;20198;-78